Portada
METAR-TAF:

METAR-TAF

Aeroports :

Francistown, Botswana

latitud: 21-13S, longitud: 027-30E, altitud: 1001 m

Observació

L'informe es va fer fa 8 hores i 48 minuts, a les 19:00 UTC
Vent 4 kt del Nord/Nord-Oest, variant entre Nord-Oest i Nord/Nord-Est
Temperatura 26°C
Humitat 58%
Pressió 1015 hPa
Visibilitat 10 km o més
Núvols disperses a una alçada de 2500 ft
Escasses núvols a una alçada de 3000 ft, Cumulonimbus.

METAR: FBFT 231900Z 34004KT 320V020 9999 SCT025 FEW030CB 26/17 Q1015

Hora: 05:48 (03:48 UTC)

Pronòstic

L'informe es va fer fa 3 hores i 48 minuts, a les 00:00 UTC
Pronòstic vàlid del 24 a les 03 UTC al 24 a les 12 UTC
Vent 10 kt del Nord-Oest
Visibilitat 10 km o més
sense núvols per sota de 1500 mi sense presència de cumulonimbus.
Evolucionant progressivament
l' 24 a les 10 UTC al 24 a les 12 UTC
Escasses núvols a una alçada de 3500 ft, Cumulonimbus.

TAF: FBFT 240000Z 2403/2412 32010KT CAVOK BECMG 2410/2412 FEW035CB

Observacions i pronòstics meteorològics de més de 4000 aeroports (METAR i TAF).

Les estacions disponibles són els punts grocs i vermells al mapa.

Posi el ratolí al punt desitjat per veure el nom de l'estació.

Feu clic per veure les observacions i els pronòstics meteorològics.

Per canviar el mapa: feu clic els botons verds amb una creu de color negre per apropar; al botó verd amb un guió per allunyar la imatge; o en les fletxes verdes per a mapes adjacents.


METAR-TAF: